sensor_id;sensor_type;location;lat;lon;timestamp;temperature;humidity
3550;DHT22;45572;48.804;8.330;2022-07-06T00:00:34;17.10;81.60
3550;DHT22;45572;48.804;8.330;2022-07-06T00:03:03;17.00;81.70
3550;DHT22;45572;48.804;8.330;2022-07-06T00:05:31;17.10;81.70
3550;DHT22;45572;48.804;8.330;2022-07-06T00:07:59;17.10;81.70
3550;DHT22;45572;48.804;8.330;2022-07-06T00:10:27;17.10;81.70
3550;DHT22;45572;48.804;8.330;2022-07-06T00:12:55;17.20;81.60
3550;DHT22;45572;48.804;8.330;2022-07-06T00:15:23;17.10;81.70
3550;DHT22;45572;48.804;8.330;2022-07-06T00:17:50;17.10;82.10
3550;DHT22;45572;48.804;8.330;2022-07-06T00:20:20;16.90;82.30
3550;DHT22;45572;48.804;8.330;2022-07-06T00:22:48;16.90;82.50
3550;DHT22;45572;48.804;8.330;2022-07-06T00:25:17;16.80;82.70
3550;DHT22;45572;48.804;8.330;2022-07-06T00:27:44;16.60;83.30
3550;DHT22;45572;48.804;8.330;2022-07-06T00:30:12;16.60;83.20
3550;DHT22;45572;48.804;8.330;2022-07-06T00:32:40;16.60;83.20
3550;DHT22;45572;48.804;8.330;2022-07-06T00:35:08;16.60;83.20
3550;DHT22;45572;48.804;8.330;2022-07-06T00:37:38;16.60;83.00
3550;DHT22;45572;48.804;8.330;2022-07-06T00:40:07;16.60;83.10
3550;DHT22;45572;48.804;8.330;2022-07-06T00:42:43;16.60;83.10
3550;DHT22;45572;48.804;8.330;2022-07-06T00:45:13;16.50;83.20
3550;DHT22;45572;48.804;8.330;2022-07-06T00:47:42;16.30;83.80
3550;DHT22;45572;48.804;8.330;2022-07-06T00:50:12;16.40;83.90
3550;DHT22;45572;48.804;8.330;2022-07-06T00:52:49;16.40;83.80
3550;DHT22;45572;48.804;8.330;2022-07-06T00:55:19;16.40;84.00
3550;DHT22;45572;48.804;8.330;2022-07-06T00:57:50;16.30;84.40
3550;DHT22;45572;48.804;8.330;2022-07-06T01:00:22;16.30;84.20
3550;DHT22;45572;48.804;8.330;2022-07-06T01:02:51;16.30;84.40
3550;DHT22;45572;48.804;8.330;2022-07-06T01:05:19;16.20;84.50
3550;DHT22;45572;48.804;8.330;2022-07-06T01:07:53;16.30;84.40
3550;DHT22;45572;48.804;8.330;2022-07-06T01:10:22;16.30;84.10
3550;DHT22;45572;48.804;8.330;2022-07-06T01:12:50;16.30;84.30
3550;DHT22;45572;48.804;8.330;2022-07-06T01:15:19;16.30;84.30
3550;DHT22;45572;48.804;8.330;2022-07-06T01:17:51;16.20;84.20
3550;DHT22;45572;48.804;8.330;2022-07-06T01:20:25;16.10;84.80
3550;DHT22;45572;48.804;8.330;2022-07-06T01:22:54;16.10;84.50
3550;DHT22;45572;48.804;8.330;2022-07-06T01:25:22;16.00;84.80
3550;DHT22;45572;48.804;8.330;2022-07-06T01:27:53;15.90;85.00
3550;DHT22;45572;48.804;8.330;2022-07-06T01:30:21;15.90;85.10
3550;DHT22;45572;48.804;8.330;2022-07-06T01:32:48;15.90;85.20
3550;DHT22;45572;48.804;8.330;2022-07-06T01:35:18;15.90;85.10
3550;DHT22;45572;48.804;8.330;2022-07-06T01:37:48;15.80;85.10
3550;DHT22;45572;48.804;8.330;2022-07-06T01:40:16;15.60;86.10
3550;DHT22;45572;48.804;8.330;2022-07-06T01:42:43;15.70;85.80
3550;DHT22;45572;48.804;8.330;2022-07-06T01:45:12;15.70;85.90
3550;DHT22;45572;48.804;8.330;2022-07-06T01:47:41;15.70;85.90
3550;DHT22;45572;48.804;8.330;2022-07-06T01:50:10;15.60;86.00
3550;DHT22;45572;48.804;8.330;2022-07-06T01:52:41;15.60;85.80
3550;DHT22;45572;48.804;8.330;2022-07-06T01:55:10;15.50;85.70
3550;DHT22;45572;48.804;8.330;2022-07-06T01:57:39;15.50;86.20
3550;DHT22;45572;48.804;8.330;2022-07-06T02:00:09;15.50;86.30
3550;DHT22;45572;48.804;8.330;2022-07-06T02:02:54;15.50;86.30
3550;DHT22;45572;48.804;8.330;2022-07-06T02:05:21;15.50;86.30
3550;DHT22;45572;48.804;8.330;2022-07-06T02:07:50;15.40;86.40
3550;DHT22;45572;48.804;8.330;2022-07-06T02:10:18;15.30;86.70
3550;DHT22;45572;48.804;8.330;2022-07-06T02:12:51;15.30;87.00
3550;DHT22;45572;48.804;8.330;2022-07-06T02:15:19;15.20;87.00
3550;DHT22;45572;48.804;8.330;2022-07-06T02:17:48;15.20;86.90
3550;DHT22;45572;48.804;8.330;2022-07-06T02:20:18;15.20;86.70
3550;DHT22;45572;48.804;8.330;2022-07-06T02:22:50;15.10;87.10
3550;DHT22;45572;48.804;8.330;2022-07-06T02:25:18;15.10;87.10
3550;DHT22;45572;48.804;8.330;2022-07-06T02:27:46;15.10;87.10
3550;DHT22;45572;48.804;8.330;2022-07-06T02:30:13;15.10;87.10
3550;DHT22;45572;48.804;8.330;2022-07-06T02:32:45;15.20;87.20
3550;DHT22;45572;48.804;8.330;2022-07-06T02:35:14;15.20;86.80
3550;DHT22;45572;48.804;8.330;2022-07-06T02:37:44;15.00;87.40
3550;DHT22;45572;48.804;8.330;2022-07-06T02:40:12;14.90;87.70
3550;DHT22;45572;48.804;8.330;2022-07-06T02:42:40;15.00;87.70
3550;DHT22;45572;48.804;8.330;2022-07-06T02:45:10;15.00;87.60
3550;DHT22;45572;48.804;8.330;2022-07-06T02:47:38;15.00;87.50
3550;DHT22;45572;48.804;8.330;2022-07-06T02:50:06;15.00;87.40
3550;DHT22;45572;48.804;8.330;2022-07-06T02:52:34;15.10;87.30
3550;DHT22;45572;48.804;8.330;2022-07-06T02:55:10;15.00;87.70
3550;DHT22;45572;48.804;8.330;2022-07-06T02:57:39;14.90;87.50
3550;DHT22;45572;48.804;8.330;2022-07-06T03:00:08;14.80;87.90
3550;DHT22;45572;48.804;8.330;2022-07-06T03:02:38;14.80;87.70
3550;DHT22;45572;48.804;8.330;2022-07-06T03:05:08;14.70;88.30
3550;DHT22;45572;48.804;8.330;2022-07-06T03:07:36;14.80;88.40
3550;DHT22;45572;48.804;8.330;2022-07-06T03:10:06;14.80;88.00
3550;DHT22;45572;48.804;8.330;2022-07-06T03:12:35;14.70;88.20
3550;DHT22;45572;48.804;8.330;2022-07-06T03:15:03;14.80;88.20
3550;DHT22;45572;48.804;8.330;2022-07-06T03:17:32;14.80;87.90
3550;DHT22;45572;48.804;8.330;2022-07-06T03:20:00;14.80;87.90
3550;DHT22;45572;48.804;8.330;2022-07-06T03:22:28;14.80;88.10
3550;DHT22;45572;48.804;8.330;2022-07-06T03:24:56;14.80;88.00
3550;DHT22;45572;48.804;8.330;2022-07-06T03:27:24;14.80;88.00
3550;DHT22;45572;48.804;8.330;2022-07-06T03:29:53;14.70;88.10
3550;DHT22;45572;48.804;8.330;2022-07-06T03:32:22;14.80;88.20
3550;DHT22;45572;48.804;8.330;2022-07-06T03:34:50;14.80;88.10
3550;DHT22;45572;48.804;8.330;2022-07-06T03:37:18;14.70;88.00
3550;DHT22;45572;48.804;8.330;2022-07-06T03:39:47;14.60;88.10
3550;DHT22;45572;48.804;8.330;2022-07-06T03:42:15;14.40;88.80
3550;DHT22;45572;48.804;8.330;2022-07-06T03:44:43;14.50;89.30
3550;DHT22;45572;48.804;8.330;2022-07-06T03:47:13;14.50;89.00
3550;DHT22;45572;48.804;8.330;2022-07-06T03:49:46;14.60;88.70
3550;DHT22;45572;48.804;8.330;2022-07-06T03:52:14;14.60;88.50
3550;DHT22;45572;48.804;8.330;2022-07-06T03:54:48;14.60;88.90
3550;DHT22;45572;48.804;8.330;2022-07-06T03:57:22;14.60;88.70
3550;DHT22;45572;48.804;8.330;2022-07-06T03:59:49;14.40;89.10
3550;DHT22;45572;48.804;8.330;2022-07-06T04:02:19;14.50;89.30
3550;DHT22;45572;48.804;8.330;2022-07-06T04:04:51;14.50;89.20
3550;DHT22;45572;48.804;8.330;2022-07-06T04:07:20;14.40;89.10
3550;DHT22;45572;48.804;8.330;2022-07-06T04:09:53;14.50;89.40
3550;DHT22;45572;48.804;8.330;2022-07-06T04:12:22;14.40;89.10
3550;DHT22;45572;48.804;8.330;2022-07-06T04:14:52;14.20;89.50
3550;DHT22;45572;48.804;8.330;2022-07-06T04:17:21;14.10;90.30
3550;DHT22;45572;48.804;8.330;2022-07-06T04:20:04;14.10;90.70
3550;DHT22;45572;48.804;8.330;2022-07-06T04:22:32;14.20;90.20
3550;DHT22;45572;48.804;8.330;2022-07-06T04:25:00;14.30;90.10
3550;DHT22;45572;48.804;8.330;2022-07-06T04:27:27;14.40;89.90
3550;DHT22;45572;48.804;8.330;2022-07-06T04:29:55;14.40;89.90
3550;DHT22;45572;48.804;8.330;2022-07-06T04:32:24;14.50;89.80
3550;DHT22;45572;48.804;8.330;2022-07-06T04:34:53;14.50;89.60
3550;DHT22;45572;48.804;8.330;2022-07-06T04:37:22;14.60;89.50
3550;DHT22;45572;48.804;8.330;2022-07-06T04:39:50;14.60;89.70
3550;DHT22;45572;48.804;8.330;2022-07-06T04:42:18;14.70;89.60
3550;DHT22;45572;48.804;8.330;2022-07-06T04:44:47;14.80;89.30
3550;DHT22;45572;48.804;8.330;2022-07-06T04:47:14;15.00;89.20
3550;DHT22;45572;48.804;8.330;2022-07-06T04:49:45;15.00;89.10
3550;DHT22;45572;48.804;8.330;2022-07-06T04:52:14;15.10;88.90
3550;DHT22;45572;48.804;8.330;2022-07-06T04:54:42;15.00;89.00
3550;DHT22;45572;48.804;8.330;2022-07-06T04:57:10;15.00;89.30
3550;DHT22;45572;48.804;8.330;2022-07-06T04:59:40;15.10;89.20
3550;DHT22;45572;48.804;8.330;2022-07-06T05:02:08;15.10;88.90
3550;DHT22;45572;48.804;8.330;2022-07-06T05:04:36;15.20;88.80
3550;DHT22;45572;48.804;8.330;2022-07-06T05:07:06;15.20;89.00
3550;DHT22;45572;48.804;8.330;2022-07-06T05:09:33;15.40;88.90
3550;DHT22;45572;48.804;8.330;2022-07-06T05:12:02;15.50;88.90
3550;DHT22;45572;48.804;8.330;2022-07-06T05:14:30;15.70;88.40
3550;DHT22;45572;48.804;8.330;2022-07-06T05:16:58;15.90;87.60
3550;DHT22;45572;48.804;8.330;2022-07-06T05:19:27;16.00;87.40
3550;DHT22;45572;48.804;8.330;2022-07-06T05:21:55;16.30;87.10
3550;DHT22;45572;48.804;8.330;2022-07-06T05:24:25;16.40;86.70
3550;DHT22;45572;48.804;8.330;2022-07-06T05:26:53;16.60;85.90
3550;DHT22;45572;48.804;8.330;2022-07-06T05:29:21;16.80;85.70
3550;DHT22;45572;48.804;8.330;2022-07-06T05:31:49;17.10;85.40
3550;DHT22;45572;48.804;8.330;2022-07-06T05:34:18;17.40;83.80
3550;DHT22;45572;48.804;8.330;2022-07-06T05:36:46;17.60;83.20
3550;DHT22;45572;48.804;8.330;2022-07-06T05:39:13;17.70;82.50
3550;DHT22;45572;48.804;8.330;2022-07-06T05:41:48;17.90;82.30
3550;DHT22;45572;48.804;8.330;2022-07-06T05:44:18;18.20;81.60
3550;DHT22;45572;48.804;8.330;2022-07-06T05:46:46;18.50;80.90
3550;DHT22;45572;48.804;8.330;2022-07-06T05:49:14;18.70;79.90
3550;DHT22;45572;48.804;8.330;2022-07-06T05:51:56;18.90;79.30
3550;DHT22;45572;48.804;8.330;2022-07-06T05:54:24;19.10;78.70
3550;DHT22;45572;48.804;8.330;2022-07-06T05:56:54;19.20;77.80
3550;DHT22;45572;48.804;8.330;2022-07-06T05:59:22;19.50;75.90
3550;DHT22;45572;48.804;8.330;2022-07-06T06:01:50;19.60;74.20
3550;DHT22;45572;48.804;8.330;2022-07-06T06:04:22;19.90;74.40
3550;DHT22;45572;48.804;8.330;2022-07-06T06:06:57;20.30;71.80
3550;DHT22;45572;48.804;8.330;2022-07-06T06:09:25;21.00;69.40
3550;DHT22;45572;48.804;8.330;2022-07-06T06:11:54;21.60;68.20
3550;DHT22;45572;48.804;8.330;2022-07-06T06:14:23;22.40;66.40
3550;DHT22;45572;48.804;8.330;2022-07-06T06:16:56;23.00;63.70
3550;DHT22;45572;48.804;8.330;2022-07-06T06:19:23;23.20;62.50
3550;DHT22;45572;48.804;8.330;2022-07-06T06:21:51;24.10;61.80
3550;DHT22;45572;48.804;8.330;2022-07-06T06:24:19;24.90;58.60
3550;DHT22;45572;48.804;8.330;2022-07-06T06:26:46;25.70;57.60
3550;DHT22;45572;48.804;8.330;2022-07-06T06:29:16;26.10;55.00
3550;DHT22;45572;48.804;8.330;2022-07-06T06:31:44;25.30;57.00
3550;DHT22;45572;48.804;8.330;2022-07-06T06:34:12;26.10;57.40
3550;DHT22;45572;48.804;8.330;2022-07-06T06:36:40;27.10;54.80
3550;DHT22;45572;48.804;8.330;2022-07-06T06:39:08;28.00;51.80
3550;DHT22;45572;48.804;8.330;2022-07-06T06:41:35;28.10;51.80
3550;DHT22;45572;48.804;8.330;2022-07-06T06:44:03;28.70;51.20
3550;DHT22;45572;48.804;8.330;2022-07-06T06:46:39;29.40;49.80
3550;DHT22;45572;48.804;8.330;2022-07-06T06:49:07;29.70;47.80
3550;DHT22;45572;48.804;8.330;2022-07-06T06:51:35;29.50;48.10
3550;DHT22;45572;48.804;8.330;2022-07-06T06:54:03;30.10;48.60
3550;DHT22;45572;48.804;8.330;2022-07-06T06:56:31;30.70;48.30
3550;DHT22;45572;48.804;8.330;2022-07-06T06:58:59;31.20;47.30
3550;DHT22;45572;48.804;8.330;2022-07-06T07:01:45;31.40;45.80
3550;DHT22;45572;48.804;8.330;2022-07-06T07:04:21;31.60;46.30
3550;DHT22;45572;48.804;8.330;2022-07-06T07:06:49;31.80;45.70
3550;DHT22;45572;48.804;8.330;2022-07-06T07:09:17;32.40;43.70
3550;DHT22;45572;48.804;8.330;2022-07-06T07:11:45;32.60;43.80
3550;DHT22;45572;48.804;8.330;2022-07-06T07:14:13;32.90;45.30
3550;DHT22;45572;48.804;8.330;2022-07-06T07:16:41;33.00;43.60
3550;DHT22;45572;48.804;8.330;2022-07-06T07:19:10;33.50;43.10
3550;DHT22;45572;48.804;8.330;2022-07-06T07:21:38;33.70;42.90
3550;DHT22;45572;48.804;8.330;2022-07-06T07:24:06;34.30;42.60
3550;DHT22;45572;48.804;8.330;2022-07-06T07:26:36;34.40;42.70
3550;DHT22;45572;48.804;8.330;2022-07-06T07:29:04;34.80;41.60
3550;DHT22;45572;48.804;8.330;2022-07-06T07:31:32;34.80;41.90
3550;DHT22;45572;48.804;8.330;2022-07-06T07:34:00;34.90;41.40
3550;DHT22;45572;48.804;8.330;2022-07-06T07:36:29;35.20;41.50
3550;DHT22;45572;48.804;8.330;2022-07-06T07:38:57;35.80;41.10
3550;DHT22;45572;48.804;8.330;2022-07-06T07:41:25;36.20;40.70
3550;DHT22;45572;48.804;8.330;2022-07-06T07:43:54;36.10;41.30
3550;DHT22;45572;48.804;8.330;2022-07-06T07:46:22;36.20;40.30
3550;DHT22;45572;48.804;8.330;2022-07-06T07:48:52;36.20;39.60
3550;DHT22;45572;48.804;8.330;2022-07-06T07:51:19;36.00;39.70
3550;DHT22;45572;48.804;8.330;2022-07-06T07:53:49;36.30;39.40
3550;DHT22;45572;48.804;8.330;2022-07-06T07:56:16;36.50;40.10
3550;DHT22;45572;48.804;8.330;2022-07-06T07:58:44;37.00;39.60
3550;DHT22;45572;48.804;8.330;2022-07-06T08:01:15;37.40;39.60
3550;DHT22;45572;48.804;8.330;2022-07-06T08:03:45;37.70;39.10
3550;DHT22;45572;48.804;8.330;2022-07-06T08:06:17;37.50;39.60
3550;DHT22;45572;48.804;8.330;2022-07-06T08:08:45;37.70;38.70
3550;DHT22;45572;48.804;8.330;2022-07-06T08:11:14;37.50;38.80
3550;DHT22;45572;48.804;8.330;2022-07-06T08:13:45;37.80;38.50
3550;DHT22;45572;48.804;8.330;2022-07-06T08:16:16;37.10;38.20
3550;DHT22;45572;48.804;8.330;2022-07-06T08:18:45;36.70;38.70
3550;DHT22;45572;48.804;8.330;2022-07-06T08:21:13;36.50;39.40
3550;DHT22;45572;48.804;8.330;2022-07-06T08:23:51;36.70;39.70
3550;DHT22;45572;48.804;8.330;2022-07-06T08:26:20;36.70;39.20
3550;DHT22;45572;48.804;8.330;2022-07-06T08:28:48;36.30;39.80
3550;DHT22;45572;48.804;8.330;2022-07-06T08:31:17;36.40;40.10
3550;DHT22;45572;48.804;8.330;2022-07-06T08:34:05;36.70;39.60
3550;DHT22;45572;48.804;8.330;2022-07-06T08:36:33;37.20;39.30
3550;DHT22;45572;48.804;8.330;2022-07-06T08:39:05;37.20;39.00
3550;DHT22;45572;48.804;8.330;2022-07-06T08:41:35;37.40;39.40
3550;DHT22;45572;48.804;8.330;2022-07-06T08:44:04;37.90;38.70
3550;DHT22;45572;48.804;8.330;2022-07-06T08:46:38;38.00;38.80
3550;DHT22;45572;48.804;8.330;2022-07-06T08:49:07;38.10;37.70
3550;DHT22;45572;48.804;8.330;2022-07-06T08:51:35;37.90;38.10
3550;DHT22;45572;48.804;8.330;2022-07-06T08:54:04;38.00;38.70
3550;DHT22;45572;48.804;8.330;2022-07-06T08:56:33;38.30;37.10
3550;DHT22;45572;48.804;8.330;2022-07-06T08:59:01;38.30;37.30
3550;DHT22;45572;48.804;8.330;2022-07-06T09:01:29;38.60;37.20
3550;DHT22;45572;48.804;8.330;2022-07-06T09:03:58;38.60;37.70
3550;DHT22;45572;48.804;8.330;2022-07-06T09:06:27;38.00;38.50
3550;DHT22;45572;48.804;8.330;2022-07-06T09:08:56;38.10;38.50
3550;DHT22;45572;48.804;8.330;2022-07-06T09:11:24;38.20;37.80
3550;DHT22;45572;48.804;8.330;2022-07-06T09:13:54;38.00;38.10
3550;DHT22;45572;48.804;8.330;2022-07-06T09:16:26;37.30;38.80
3550;DHT22;45572;48.804;8.330;2022-07-06T09:19:05;37.10;40.10
3550;DHT22;45572;48.804;8.330;2022-07-06T09:21:34;37.50;38.50
3550;DHT22;45572;48.804;8.330;2022-07-06T09:24:08;37.50;38.80
3550;DHT22;45572;48.804;8.330;2022-07-06T09:26:36;37.70;38.20
3550;DHT22;45572;48.804;8.330;2022-07-06T09:29:06;37.50;38.20
3550;DHT22;45572;48.804;8.330;2022-07-06T09:31:34;37.50;38.60
3550;DHT22;45572;48.804;8.330;2022-07-06T09:34:04;37.30;38.00
3550;DHT22;45572;48.804;8.330;2022-07-06T09:36:42;37.50;38.70
3550;DHT22;45572;48.804;8.330;2022-07-06T09:39:19;38.30;39.00
3550;DHT22;45572;48.804;8.330;2022-07-06T09:41:55;38.50;38.80
3550;DHT22;45572;48.804;8.330;2022-07-06T09:44:26;39.20;36.90
3550;DHT22;45572;48.804;8.330;2022-07-06T09:47:00;39.30;37.30
3550;DHT22;45572;48.804;8.330;2022-07-06T09:49:28;39.60;36.40
3550;DHT22;45572;48.804;8.330;2022-07-06T09:51:58;39.90;35.80
3550;DHT22;45572;48.804;8.330;2022-07-06T09:54:27;39.90;35.50
3550;DHT22;45572;48.804;8.330;2022-07-06T09:56:56;40.20;35.40
3550;DHT22;45572;48.804;8.330;2022-07-06T09:59:26;39.60;35.50
3550;DHT22;45572;48.804;8.330;2022-07-06T10:01:58;39.10;36.00
3550;DHT22;45572;48.804;8.330;2022-07-06T10:04:28;39.30;36.10
3550;DHT22;45572;48.804;8.330;2022-07-06T10:06:59;39.50;36.10
3550;DHT22;45572;48.804;8.330;2022-07-06T10:09:28;39.50;35.80
3550;DHT22;45572;48.804;8.330;2022-07-06T10:12:02;39.50;36.70
3550;DHT22;45572;48.804;8.330;2022-07-06T10:14:33;39.80;35.50
3550;DHT22;45572;48.804;8.330;2022-07-06T10:17:03;40.00;36.00
3550;DHT22;45572;48.804;8.330;2022-07-06T10:19:32;40.10;35.70
3550;DHT22;45572;48.804;8.330;2022-07-06T10:22:01;39.70;35.50
3550;DHT22;45572;48.804;8.330;2022-07-06T10:24:30;39.50;35.60
3550;DHT22;45572;48.804;8.330;2022-07-06T10:27:01;39.00;35.80
3550;DHT22;45572;48.804;8.330;2022-07-06T10:29:31;39.10;35.20
3550;DHT22;45572;48.804;8.330;2022-07-06T10:32:01;39.10;36.50
3550;DHT22;45572;48.804;8.330;2022-07-06T10:34:29;39.30;35.60
3550;DHT22;45572;48.804;8.330;2022-07-06T10:36:57;39.30;36.20
3550;DHT22;45572;48.804;8.330;2022-07-06T10:39:33;38.90;35.70
3550;DHT22;45572;48.804;8.330;2022-07-06T10:45:20;39.30;35.30
3550;DHT22;45572;48.804;8.330;2022-07-06T10:50:49;37.60;37.10
3550;DHT22;45572;48.804;8.330;2022-07-06T10:53:22;37.10;37.30
3550;DHT22;45572;48.804;8.330;2022-07-06T10:55:53;35.40;39.70
3550;DHT22;45572;48.804;8.330;2022-07-06T10:58:36;36.00;39.10
3550;DHT22;45572;48.804;8.330;2022-07-06T11:01:08;37.00;38.10
3550;DHT22;45572;48.804;8.330;2022-07-06T11:03:39;38.10;37.20
3550;DHT22;45572;48.804;8.330;2022-07-06T11:06:10;38.50;38.00
3550;DHT22;45572;48.804;8.330;2022-07-06T11:08:44;39.40;35.50
3550;DHT22;45572;48.804;8.330;2022-07-06T11:11:13;39.90;36.70
3550;DHT22;45572;48.804;8.330;2022-07-06T11:13:52;40.00;34.90
3550;DHT22;45572;48.804;8.330;2022-07-06T11:16:23;39.40;35.30
3550;DHT22;45572;48.804;8.330;2022-07-06T11:19:03;39.00;36.00
3550;DHT22;45572;48.804;8.330;2022-07-06T11:21:35;39.00;35.40
3550;DHT22;45572;48.804;8.330;2022-07-06T11:24:08;38.90;36.80
3550;DHT22;45572;48.804;8.330;2022-07-06T11:26:36;39.00;37.50
3550;DHT22;45572;48.804;8.330;2022-07-06T11:29:09;39.50;36.90
3550;DHT22;45572;48.804;8.330;2022-07-06T11:31:40;38.50;35.80
3550;DHT22;45572;48.804;8.330;2022-07-06T11:34:09;37.70;37.50
3550;DHT22;45572;48.804;8.330;2022-07-06T11:36:38;37.00;38.30
3550;DHT22;45572;48.804;8.330;2022-07-06T11:39:12;36.70;38.40
3550;DHT22;45572;48.804;8.330;2022-07-06T11:41:41;37.30;39.10
3550;DHT22;45572;48.804;8.330;2022-07-06T11:44:16;37.50;37.80
3550;DHT22;45572;48.804;8.330;2022-07-06T11:46:49;38.00;38.40
3550;DHT22;45572;48.804;8.330;2022-07-06T11:49:17;38.10;36.70
3550;DHT22;45572;48.804;8.330;2022-07-06T11:51:46;38.00;37.80
3550;DHT22;45572;48.804;8.330;2022-07-06T11:54:14;37.40;37.40
3550;DHT22;45572;48.804;8.330;2022-07-06T11:56:47;36.00;39.10
3550;DHT22;45572;48.804;8.330;2022-07-06T11:59:16;35.00;40.30
3550;DHT22;45572;48.804;8.330;2022-07-06T12:01:45;35.00;40.80
3550;DHT22;45572;48.804;8.330;2022-07-06T12:04:15;35.60;39.30
3550;DHT22;45572;48.804;8.330;2022-07-06T12:06:44;36.10;38.80
3550;DHT22;45572;48.804;8.330;2022-07-06T12:09:12;36.40;39.60
3550;DHT22;45572;48.804;8.330;2022-07-06T12:11:44;36.80;38.20
3550;DHT22;45572;48.804;8.330;2022-07-06T12:14:14;37.30;37.80
3550;DHT22;45572;48.804;8.330;2022-07-06T12:16:43;37.30;38.00
3550;DHT22;45572;48.804;8.330;2022-07-06T12:19:11;37.10;40.20
3550;DHT22;45572;48.804;8.330;2022-07-06T12:21:45;37.60;39.20
3550;DHT22;45572;48.804;8.330;2022-07-06T12:24:18;38.00;36.90
3550;DHT22;45572;48.804;8.330;2022-07-06T12:26:46;38.70;36.90
3550;DHT22;45572;48.804;8.330;2022-07-06T12:29:14;39.30;36.10
3550;DHT22;45572;48.804;8.330;2022-07-06T12:31:44;39.80;36.20
3550;DHT22;45572;48.804;8.330;2022-07-06T12:34:16;40.20;35.50
3550;DHT22;45572;48.804;8.330;2022-07-06T12:36:48;39.60;36.40
3550;DHT22;45572;48.804;8.330;2022-07-06T12:39:18;38.40;36.30
3550;DHT22;45572;48.804;8.330;2022-07-06T12:41:48;38.00;37.20
3550;DHT22;45572;48.804;8.330;2022-07-06T12:44:17;36.80;38.40
3550;DHT22;45572;48.804;8.330;2022-07-06T12:46:46;36.30;39.40
3550;DHT22;45572;48.804;8.330;2022-07-06T12:49:18;35.60;40.30
3550;DHT22;45572;48.804;8.330;2022-07-06T12:51:52;36.20;38.90
3550;DHT22;45572;48.804;8.330;2022-07-06T12:54:21;36.60;38.20
3550;DHT22;45572;48.804;8.330;2022-07-06T12:57:06;36.60;40.10
3550;DHT22;45572;48.804;8.330;2022-07-06T12:59:37;36.50;39.70
3550;DHT22;45572;48.804;8.330;2022-07-06T13:02:07;35.60;39.30
3550;DHT22;45572;48.804;8.330;2022-07-06T13:04:37;34.50;41.20
3550;DHT22;45572;48.804;8.330;2022-07-06T13:07:17;32.50;41.40
3550;DHT22;45572;48.804;8.330;2022-07-06T13:09:49;31.20;44.80
3550;DHT22;45572;48.804;8.330;2022-07-06T13:12:17;30.90;46.80
3550;DHT22;45572;48.804;8.330;2022-07-06T13:14:45;30.50;46.60
3550;DHT22;45572;48.804;8.330;2022-07-06T13:17:13;30.20;46.80
3550;DHT22;45572;48.804;8.330;2022-07-06T13:19:41;29.80;46.60
3550;DHT22;45572;48.804;8.330;2022-07-06T13:22:10;29.70;46.70
3550;DHT22;45572;48.804;8.330;2022-07-06T13:24:38;29.50;46.90
3550;DHT22;45572;48.804;8.330;2022-07-06T13:27:06;29.30;47.40
3550;DHT22;45572;48.804;8.330;2022-07-06T13:29:34;29.20;48.10
3550;DHT22;45572;48.804;8.330;2022-07-06T13:32:03;28.90;48.00
3550;DHT22;45572;48.804;8.330;2022-07-06T13:34:31;28.70;49.80
3550;DHT22;45572;48.804;8.330;2022-07-06T13:36:59;28.40;49.40
3550;DHT22;45572;48.804;8.330;2022-07-06T13:39:28;28.50;49.00
3550;DHT22;45572;48.804;8.330;2022-07-06T13:41:58;28.30;49.60
3550;DHT22;45572;48.804;8.330;2022-07-06T13:44:26;27.90;47.90
3550;DHT22;45572;48.804;8.330;2022-07-06T13:46:54;27.90;50.50
3550;DHT22;45572;48.804;8.330;2022-07-06T13:49:22;27.70;50.00
3550;DHT22;45572;48.804;8.330;2022-07-06T13:51:57;27.90;48.50
3550;DHT22;45572;48.804;8.330;2022-07-06T13:54:32;28.00;47.90
3550;DHT22;45572;48.804;8.330;2022-07-06T13:57:04;27.90;49.40
3550;DHT22;45572;48.804;8.330;2022-07-06T13:59:32;27.70;49.10
3550;DHT22;45572;48.804;8.330;2022-07-06T14:02:01;27.60;49.00
3550;DHT22;45572;48.804;8.330;2022-07-06T14:04:29;27.50;49.50
3550;DHT22;45572;48.804;8.330;2022-07-06T14:06:57;27.40;48.80
3550;DHT22;45572;48.804;8.330;2022-07-06T14:09:25;27.10;51.10
3550;DHT22;45572;48.804;8.330;2022-07-06T14:11:54;27.30;48.80
3550;DHT22;45572;48.804;8.330;2022-07-06T14:14:22;27.50;50.20
3550;DHT22;45572;48.804;8.330;2022-07-06T14:16:56;27.60;50.50
3550;DHT22;45572;48.804;8.330;2022-07-06T14:19:24;27.70;50.30
3550;DHT22;45572;48.804;8.330;2022-07-06T14:21:52;28.00;48.90
3550;DHT22;45572;48.804;8.330;2022-07-06T14:24:21;27.90;49.50
3550;DHT22;45572;48.804;8.330;2022-07-06T14:26:58;28.00;48.70
3550;DHT22;45572;48.804;8.330;2022-07-06T14:29:26;27.90;48.40
3550;DHT22;45572;48.804;8.330;2022-07-06T14:31:54;27.80;48.20
3550;DHT22;45572;48.804;8.330;2022-07-06T14:34:22;27.90;48.30
3550;DHT22;45572;48.804;8.330;2022-07-06T14:36:52;27.90;47.10
3550;DHT22;45572;48.804;8.330;2022-07-06T14:39:20;27.90;47.20
3550;DHT22;45572;48.804;8.330;2022-07-06T14:41:49;27.80;48.60
3550;DHT22;45572;48.804;8.330;2022-07-06T14:44:18;27.50;47.80
3550;DHT22;45572;48.804;8.330;2022-07-06T14:46:46;27.40;48.30
3550;DHT22;45572;48.804;8.330;2022-07-06T14:49:13;27.30;49.60
3550;DHT22;45572;48.804;8.330;2022-07-06T14:51:48;27.10;49.20
3550;DHT22;45572;48.804;8.330;2022-07-06T14:54:16;27.20;49.40
3550;DHT22;45572;48.804;8.330;2022-07-06T14:56:44;27.20;48.00
3550;DHT22;45572;48.804;8.330;2022-07-06T14:59:11;27.30;47.80
3550;DHT22;45572;48.804;8.330;2022-07-06T15:01:52;27.40;47.90
3550;DHT22;45572;48.804;8.330;2022-07-06T15:04:20;27.40;47.00
3550;DHT22;45572;48.804;8.330;2022-07-06T15:06:50;27.40;47.40
3550;DHT22;45572;48.804;8.330;2022-07-06T15:09:23;27.30;46.70
3550;DHT22;45572;48.804;8.330;2022-07-06T15:11:52;27.30;47.10
3550;DHT22;45572;48.804;8.330;2022-07-06T15:14:20;27.20;45.80
3550;DHT22;45572;48.804;8.330;2022-07-06T15:16:48;27.10;45.90
3550;DHT22;45572;48.804;8.330;2022-07-06T15:19:17;27.00;46.90
3550;DHT22;45572;48.804;8.330;2022-07-06T15:21:46;26.90;47.30
3550;DHT22;45572;48.804;8.330;2022-07-06T15:24:13;26.90;46.50
3550;DHT22;45572;48.804;8.330;2022-07-06T15:26:41;26.90;46.50
3550;DHT22;45572;48.804;8.330;2022-07-06T15:29:09;26.90;46.30
3550;DHT22;45572;48.804;8.330;2022-07-06T15:31:37;26.80;46.40
3550;DHT22;45572;48.804;8.330;2022-07-06T15:34:05;26.70;46.00
3550;DHT22;45572;48.804;8.330;2022-07-06T15:36:34;26.70;45.20
3550;DHT22;45572;48.804;8.330;2022-07-06T15:39:02;26.80;46.20
3550;DHT22;45572;48.804;8.330;2022-07-06T15:41:30;26.70;45.20
3550;DHT22;45572;48.804;8.330;2022-07-06T15:43:59;26.60;45.80
3550;DHT22;45572;48.804;8.330;2022-07-06T15:46:27;26.60;45.80
3550;DHT22;45572;48.804;8.330;2022-07-06T15:48:55;26.50;45.50
3550;DHT22;45572;48.804;8.330;2022-07-06T15:51:23;26.60;46.50
3550;DHT22;45572;48.804;8.330;2022-07-06T15:53:52;26.70;46.40
3550;DHT22;45572;48.804;8.330;2022-07-06T15:56:20;26.70;45.50
3550;DHT22;45572;48.804;8.330;2022-07-06T15:58:48;26.80;46.00
3550;DHT22;45572;48.804;8.330;2022-07-06T16:01:17;27.00;46.80
3550;DHT22;45572;48.804;8.330;2022-07-06T16:03:45;27.00;45.80
3550;DHT22;45572;48.804;8.330;2022-07-06T16:06:13;27.00;45.60